PST,Max TemperatureF,Mean TemperatureF,Min TemperatureF,Max Dew PointF,MeanDew PointF,Min DewpointF,Max Humidity, Mean Humidity, Min Humidity, Max Sea Level PressureIn, Mean Sea Level PressureIn, Min Sea Level PressureIn, Max VisibilityMiles, Mean VisibilityMiles, Min VisibilityMiles, Max Wind SpeedMPH, Mean Wind SpeedMPH, Max Gust SpeedMPH,PrecipitationIn, CloudCover, Events, WindDirDegrees
2013-2-1,62,49,36,45,41,35,100,81,44,30.27,30.23,30.17,10,9,2,6,2,,0.00,1,,350
2013-2-2,63,52,41,45,42,39,93,77,46,30.32,30.26,30.23,10,10,8,6,2,,0.00,0,,326
2013-2-3,60,50,39,47,42,37,96,78,53,30.27,30.20,30.14,10,10,8,7,3,,0.00,0,,102
2013-2-4,61,50,39,46,42,37,93,74,54,30.19,30.13,30.08,10,10,10,5,2,,0.00,0,,36
2013-2-5,55,47,39,47,43,37,97,84,69,30.16,30.10,30.05,10,9,6,12,5,,0.00,2,,116
2013-2-6,57,47,37,43,39,36,100,80,51,30.20,30.15,30.11,10,7,1,13,3,,0.00,0,,253
2013-2-7,53,48,42,47,42,37,97,82,66,30.14,30.08,30.00,10,8,2,21,13,29,0.15,5,Rain,145
2013-2-8,57,46,36,39,33,24,97,66,33,30.02,29.99,29.94,10,10,10,14,5,26,0.00,1,,322
2013-2-9,57,44,30,33,29,24,82,57,27,30.12,30.06,30.02,10,10,10,13,5,25,0.00,0,,329
2013-2-10,62,48,33,37,31,20,89,57,25,30.17,30.10,30.03,10,10,10,12,5,18,0.00,0,,29
2013-2-11,62,52,41,35,30,21,68,46,30,30.27,30.19,30.13,10,10,10,16,7,25,0.00,0,,34
2013-2-12,59,47,35,41,36,32,92,68,44,30.41,30.34,30.28,10,10,9,8,4,,0.00,0,,46
2013-2-13,62,49,36,43,39,35,97,73,46,30.36,30.30,30.23,10,10,7,7,1,,0.00,0,,133
2013-2-14,73,56,39,44,39,31,89,56,26,30.27,30.22,30.15,10,10,9,18,6,28,0.00,0,,330
2013-2-15,69,53,37,45,39,32,86,60,25,30.32,30.27,30.25,10,10,9,6,2,,0.00,0,,71
2013-2-16,66,54,42,44,41,36,89,66,37,30.29,30.17,30.06,10,10,9,7,2,,0.00,0,,254
2013-2-17,64,50,37,42,38,32,93,64,29,30.07,30.02,29.96,10,10,10,7,3,,0.00,0,,336
2013-2-18,60,50,39,44,40,36,89,69,51,30.03,29.96,29.91,10,10,10,18,8,26,0.00,1,,139
2013-2-19,48,42,34,43,38,34,100,86,71,29.91,29.81,29.73,10,9,2,28,15,32,0.34,7,Rain-Thunderstorm,148
2013-2-20,57,44,30,37,32,29,100,76,33,30.04,29.93,29.84,10,7,2,14,3,25,0.00,0,,317
2013-2-21,59,46,34,37,32,27,89,63,29,30.19,30.13,30.04,10,10,10,9,4,20,0.00,0,,344
2013-2-22,60,47,34,40,36,32,92,63,42,30.27,30.20,30.14,10,10,10,18,5,25,0.00,1,,143
2013-2-23,57,49,39,41,30,20,89,49,27,30.28,30.21,30.14,10,10,10,18,10,31,0.00,1,,332
2013-2-24,62,49,36,32,27,22,62,46,23,30.30,30.24,30.16,10,10,10,14,9,23,0.00,0,,329
2013-2-25,63,52,39,34,30,23,70,46,24,30.30,30.24,30.18,10,10,10,10,6,16,0.00,0,,33
2013-2-26,64,50,36,32,28,25,73,46,23,30.27,30.21,30.16,10,10,10,13,7,23,0.00,0,,316
2013-2-27,66,51,36,37,30,23,79,44,25,30.38,30.31,30.22,10,10,10,9,4,,0.00,1,,96
2013-2-28,69,58,46,47,39,34,77,52,32,30.48,30.42,30.37,10,10,10,8,3,,0.00,2,,325